首页
METAR-TAF:

METAR-TAF

机场 :

Sudbury, 安大略省, 加拿大

纬度: 46-37N, 经度: 080-48W, 海拔: 348米

当前天气观测

该预报发布于1小时和2分钟前的21:00 UTC
风速16节,风向西北,有时为21节阵风
温度 -13°C
湿度 78%
气压 996 hPa
能見度: 2.4公里
多云层高于1100英尺
阴天层高于2500英尺
小雪, 高吹雪

METAR: CYSB 272100Z 31016G21KT 1 1/2SM R22/5500VP6000FT/U -SN BLSN BKN011 OVC025 M13/M16 A2940 RMK BLSN2SC4SC2 SLP985

时间: 17:02 (22:02 UTC)

预报

该预报发布于2小时和24分钟前的19:38 UTC
预报有效从27日的 20点(UTC)到 28日的 08点(UTC)
风速15节,风向北转西北,有时为25节阵风
层高于900英尺
小雪, 高吹雪
短暂存在
从 27日的 20点(UTC)到 28日的 03点(UTC)
能見度: 9.7公里
阴天层高于3000英尺
小雪
从 28日的 0300点(UTC)
风速15节,风向西北,有时为25节阵风
阴天层高于2000英尺
小雪
短暂存在
从 28日的 03点(UTC)到 28日的 08点(UTC)
能見度: 10公里
阴天层高于4000英尺
小雪
成为
从 28日的 04点(UTC)到 28日的 06点(UTC)
风速12节,风向西转西北,有时为22节阵风

TAF: CYSB 271938Z 2720/2808 33015G25KT 11/2SM -SN BLSN VV009 TEMPO 2720/2803 6SM -SN OVC030 FM280300 31015G25KT 21/2SM -SN OVC020 TEMPO 2803/2808 P6SM -SN OVC040 BECMG 2804/2806 30012G22KT RMK NXT FCST BY 280200Z

超过4000个机场的气象观测和天气预报(METAR&TAF报告)。

可查询的气象台以黄色和红色小点在地图上表示。

将鼠标移到小点上方,可查看气象台名称。

然后点击查看天气观测和预报。

如需切换地图:点击带黑十字的绿色按钮放大地图;点击带横线的绿色按钮缩小地图;或者点击绿色箭头查看邻近地区的地图。


METAR-TAF: